Time;durP1;ratioP1;P1;durP2;ratioP2;P2;SDS_P1;SDS_P2;PMS_P1;PMS_P2;Temp;Humidity;BMP_temperature;BMP_pressure;BME280_temperature;BME280_humidity;BME280_pressure;Samples;Min_cycle;Max_cycle;Signal;HPM_P1;HPM_P2
2023/06/04 00:02:01;;;;;;;3.28;1.23;;;;;;;-142.75;100.00;77529.06;5029159;28;20052;-68
2023/06/04 00:04:26;;;;;;;4.22;1.00;;;;;;;-142.75;100.00;77550.72;5029256;28;20087;-68
2023/06/04 00:06:51;;;;;;;2.83;1.05;;;;;;;-142.75;100.00;77544.81;5029043;28;20491;-70
2023/06/04 00:09:17;;;;;;;2.67;1.08;;;;;;;-142.75;100.00;77536.94;5029022;28;20023;-70
2023/06/04 00:11:42;;;;;;;2.38;1.00;;;;;;;-142.75;100.00;77548.75;5029100;28;20091;-68
2023/06/04 00:14:08;;;;;;;2.67;1.20;;;;;;;-142.75;100.00;77558.59;5041357;28;20494;-70
2023/06/04 00:16:35;;;;;;;2.80;1.40;;;;;;;-142.75;100.00;77558.59;5049168;28;20047;-70
2023/06/04 00:19:02;;;;;;;5.82;1.13;;;;;;;-142.75;100.00;77548.75;5048956;28;20497;-69
2023/06/04 00:21:28;;;;;;;2.35;0.90;;;;;;;-142.75;100.00;77556.63;5048727;28;20113;-70
2023/06/04 00:23:53;;;;;;;4.55;1.42;;;;;;;-142.75;100.00;77550.72;5048999;28;20104;-68
2023/06/04 00:26:19;;;;;;;1.95;1.05;;;;;;;-142.75;100.00;77558.59;5048538;28;20482;-70
2023/06/04 00:28:44;;;;;;;3.35;1.30;;;;;;;-142.75;100.00;77570.41;5048673;28;20029;-70
2023/06/04 00:31:10;;;;;;;3.00;1.27;;;;;;;-142.75;100.00;77570.41;5048270;28;20094;-69
2023/06/04 00:33:35;;;;;;;3.17;1.38;;;;;;;-142.75;100.00;77570.41;5048233;28;20025;-67
2023/06/04 00:36:01;;;;;;;7.82;1.67;;;;;;;-142.75;100.00;77578.28;5048689;28;20060;-69
2023/06/04 00:38:27;;;;;;;3.08;1.52;;;;;;;-142.75;100.00;77576.31;5048211;28;20063;-69
2023/06/04 00:40:52;;;;;;;2.85;1.17;;;;;;;-142.75;100.00;77605.84;5048564;28;20112;-68
2023/06/04 00:43:18;;;;;;;2.28;1.00;;;;;;;-142.75;100.00;77605.84;5048538;28;20036;-68
2023/06/04 00:45:44;;;;;;;4.13;1.35;;;;;;;-142.75;100.00;77603.88;5049268;28;20032;-68
2023/06/04 00:48:10;;;;;;;4.95;1.42;;;;;;;-142.75;100.00;77605.84;5026326;28;20029;-69
2023/06/04 00:50:38;;;;;;;3.55;1.25;;;;;;;-142.75;100.00;77601.91;5028329;28;20033;-68
2023/06/04 00:53:04;;;;;;;3.40;1.55;;;;;;;-142.75;100.00;77613.72;5028457;28;20029;-69
2023/06/04 00:55:31;;;;;;;2.35;1.10;;;;;;;-142.75;100.00;77611.75;5028360;28;20029;-68
2023/06/04 00:57:56;;;;;;;3.78;1.30;;;;;;;-142.75;100.00;77617.66;5043785;28;20037;-67
2023/06/04 01:00:22;;;;;;;4.13;1.40;;;;;;;-142.75;100.00;77621.59;5028293;28;20072;-69
2023/06/04 01:02:51;;;;;;;4.93;1.75;;;;;;;-142.75;100.00;77645.22;5028326;28;20029;-70
2023/06/04 01:05:59;;;;;;;4.63;1.50;;;;;;;-142.75;100.00;77633.41;5027832;28;20031;-69
2023/06/04 01:08:27;;;;;;;3.55;1.40;;;;;;;-142.75;100.00;77641.28;4985909;28;20058;-68
2023/06/04 01:10:53;;;;;;;3.28;1.17;;;;;;;-142.75;100.00;77653.09;5021907;28;20072;-68
2023/06/04 01:13:19;;;;;;;2.92;1.10;;;;;;;-142.75;100.00;77643.25;5027866;28;20029;-66
2023/06/04 01:15:45;;;;;;;3.30;1.27;;;;;;;-142.75;100.00;77660.97;5028705;28;20040;-68
2023/06/04 01:18:24;;;;;;;2.88;1.48;;;;;;;-142.75;100.00;77655.06;5028053;28;20029;-68
2023/06/04 01:20:50;;;;;;;2.83;1.27;;;;;;;-142.75;100.00;77668.84;5027777;28;20104;-68
2023/06/04 01:23:27;;;;;;;2.88;1.58;;;;;;;-142.75;100.00;77670.81;5028001;28;20490;-68
2023/06/04 01:25:53;;;;;;;4.65;1.30;;;;;;;-142.75;100.00;77659.00;5027981;28;20032;-68
2023/06/04 01:28:20;;;;;;;2.28;1.33;;;;;;;-142.75;100.00;77660.97;5027936;28;20087;-66
2023/06/04 01:30:47;;;;;;;2.70;1.38;;;;;;;-142.75;100.00;77672.78;5027925;28;20112;-68
2023/06/04 01:33:17;;;;;;;3.33;1.27;;;;;;;-142.75;100.00;77657.03;5028153;28;20021;-69
2023/06/04 01:35:43;;;;;;;2.72;1.50;;;;;;;-142.75;100.00;77676.72;5027878;28;20025;-68
2023/06/04 01:38:10;;;;;;;3.53;1.02;;;;;;;-142.75;100.00;77676.72;5047412;28;20048;-67
2023/06/04 01:40:35;;;;;;;2.50;1.10;;;;;;;-142.75;100.00;77692.47;5047261;28;20104;-68
2023/06/04 01:43:01;;;;;;;2.10;1.27;;;;;;;-142.75;100.00;77688.53;5047533;28;20504;-68
2023/06/04 01:45:27;;;;;;;2.75;1.27;;;;;;;-142.75;100.00;77684.59;5047836;28;20024;-70
2023/06/04 01:47:54;;;;;;;2.55;1.30;;;;;;;-142.75;100.00;77692.47;5047566;28;20056;-69
2023/06/04 01:50:19;;;;;;;3.53;1.50;;;;;;;-142.75;100.00;77688.53;5046646;28;20051;-69
2023/06/04 01:52:45;;;;;;;4.72;1.67;;;;;;;-142.75;100.00;77696.41;5047347;28;20530;-68
2023/06/04 01:55:13;;;;;;;2.92;1.35;;;;;;;-142.75;100.00;77696.41;5047499;28;20029;-68
2023/06/04 01:57:39;;;;;;;4.85;1.30;;;;;;;-142.75;100.00;77716.09;5046869;28;20242;-67
2023/06/04 02:00:08;;;;;;;3.15;1.50;;;;;;;-142.75;100.00;77708.22;5046680;28;20045;-68
2023/06/04 02:02:33;;;;;;;2.30;1.20;;;;;;;-142.75;100.00;77722.00;5062193;28;20095;-68
2023/06/04 02:04:58;;;;;;;8.07;1.70;;;;;;;-142.75;100.00;77716.09;5062518;28;20024;-69
2023/06/04 02:07:25;;;;;;;2.42;1.33;;;;;;;-142.75;100.00;77725.97;5045862;28;20711;-70
2023/06/04 02:09:51;;;;;;;3.60;1.35;;;;;;;-142.75;100.00;77723.97;5046492;28;20021;-68
2023/06/04 02:12:16;;;;;;;2.47;1.10;;;;;;;-142.75;100.00;77731.88;5046282;28;20082;-68
2023/06/04 02:14:42;;;;;;;6.53;1.60;;;;;;;-142.75;100.00;77725.97;5047188;28;20067;-68
2023/06/04 02:17:16;;;;;;;4.28;1.30;;;;;;;-142.75;100.00;77737.78;5046075;28;20257;-71
2023/06/04 02:19:49;;;;;;;2.10;1.02;;;;;;;-142.75;100.00;77743.69;5046892;28;20028;-66
2023/06/04 02:22:18;;;;;;;3.22;1.67;;;;;;;-142.75;100.00;77739.75;5046722;28;20091;-68
2023/06/04 02:24:44;;;;;;;2.40;1.17;;;;;;;-142.75;100.00;77741.72;5046786;28;20021;-69
2023/06/04 02:27:10;;;;;;;6.18;1.40;;;;;;;-142.75;100.00;77747.63;5046277;28;20024;-67
2023/06/04 02:29:37;;;;;;;3.55;1.60;;;;;;;-142.75;100.00;77735.81;5046338;28;20074;-68
2023/06/04 02:32:06;;;;;;;6.63;1.10;;;;;;;-142.75;100.00;77747.63;5046203;28;20025;-68
2023/06/04 02:34:31;;;;;;;3.33;1.52;;;;;;;-142.75;100.00;77751.56;5046278;28;20031;-70
2023/06/04 02:36:58;;;;;;;2.70;1.48;;;;;;;-142.75;100.00;77753.53;5046316;28;20032;-67
2023/06/04 02:39:23;;;;;;;4.80;1.25;;;;;;;-142.75;100.00;77755.50;5047042;28;20108;-65
2023/06/04 02:41:49;;;;;;;3.13;1.20;;;;;;;-142.75;100.00;77767.31;5046067;28;20112;-63
2023/06/04 02:44:14;;;;;;;4.10;1.23;;;;;;;-142.75;100.00;77777.16;5046358;28;20025;-66
2023/06/04 02:46:40;;;;;;;2.80;1.33;;;;;;;-142.75;100.00;77771.25;5046689;28;20039;-65
2023/06/04 02:49:05;;;;;;;3.80;1.10;;;;;;;-142.75;100.00;77767.31;5045920;28;20040;-64
2023/06/04 02:51:31;;;;;;;3.30;1.30;;;;;;;-142.75;100.00;77767.31;5045998;28;20031;-66
2023/06/04 02:53:56;;;;;;;4.28;1.30;;;;;;;-142.75;100.00;77773.22;5046068;28;20041;-65
2023/06/04 02:56:22;;;;;;;4.15;1.50;;;;;;;-142.75;100.00;77767.31;5045704;28;20028;-66
2023/06/04 02:58:51;;;;;;;2.63;1.40;;;;;;;-142.75;100.00;77763.38;5046344;28;20072;-67
2023/06/04 03:01:23;;;;;;;2.60;1.15;;;;;;;-142.75;100.00;77773.22;5045558;28;20017;-65
2023/06/04 03:03:49;;;;;;;3.88;1.88;;;;;;;-142.75;100.00;77787.00;5045933;28;20024;-64
2023/06/04 03:06:15;;;;;;;3.55;1.40;;;;;;;-142.75;100.00;77783.06;5045805;28;20027;-65
2023/06/04 03:08:41;;;;;;;2.65;1.33;;;;;;;-142.75;100.00;77775.19;5045827;28;20029;-66
2023/06/04 03:11:07;;;;;;;3.63;1.00;;;;;;;-142.75;100.00;77779.13;5045755;28;20398;-66
2023/06/04 03:13:33;;;;;;;2.05;1.05;;;;;;;-142.75;100.00;77781.09;5045889;28;20099;-65
2023/06/04 03:16:01;;;;;;;3.75;1.33;;;;;;;-142.75;100.00;77788.97;5046158;28;20031;-65
2023/06/04 03:18:29;;;;;;;3.72;1.60;;;;;;;-142.75;100.00;77775.19;5061237;28;20055;-65
2023/06/04 03:20:55;;;;;;;6.63;1.30;;;;;;;-142.75;100.00;77783.06;5045229;28;20074;-65
2023/06/04 03:23:21;;;;;;;3.00;1.00;;;;;;;-142.75;100.00;77781.09;5045455;28;20029;-66
2023/06/04 03:25:47;;;;;;;3.33;1.20;;;;;;;-142.75;100.00;77787.00;5045777;28;20383;-65
2023/06/04 03:28:13;;;;;;;5.03;1.60;;;;;;;-142.75;100.00;77794.88;5045417;28;20495;-66
2023/06/04 03:30:40;;;;;;;2.45;1.30;;;;;;;-142.75;100.00;77790.94;5045443;28;20112;-66
2023/06/04 03:33:05;;;;;;;2.88;1.20;;;;;;;-142.75;100.00;77781.09;5045516;28;20032;-65
2023/06/04 03:35:31;;;;;;;3.67;1.25;;;;;;;-142.75;100.00;77796.84;5045329;28;20021;-65
2023/06/04 03:37:56;;;;;;;2.22;1.08;;;;;;;-142.75;100.00;77810.63;5045539;28;20029;-66
2023/06/04 03:40:21;;;;;;;1.98;1.20;;;;;;;-142.75;100.00;77796.84;5045060;28;20028;-64
2023/06/04 03:42:47;;;;;;;2.85;1.10;;;;;;;-142.75;100.00;77808.66;5045713;28;20028;-65
2023/06/04 03:45:12;;;;;;;3.58;1.38;;;;;;;-142.75;100.00;77818.50;5061261;28;20121;-65
2023/06/04 03:47:39;;;;;;;4.13;0.93;;;;;;;-142.75;100.00;77812.59;5045753;28;20067;-65
2023/06/04 03:50:05;;;;;;;2.00;1.20;;;;;;;-142.75;100.00;77810.63;5045391;28;20514;-66
2023/06/04 03:52:31;;;;;;;2.85;1.35;;;;;;;-142.75;100.00;77808.66;5045509;28;20112;-65
2023/06/04 03:54:56;;;;;;;4.50;1.30;;;;;;;-142.75;100.00;77810.63;5045450;28;20383;-65
2023/06/04 03:57:22;;;;;;;2.00;1.17;;;;;;;-142.75;100.00;77816.53;5045155;28;20021;-65
2023/06/04 03:59:47;;;;;;;3.15;1.40;;;;;;;-142.75;100.00;77812.59;5045579;28;20021;-65
2023/06/04 04:02:12;;;;;;;2.17;1.17;;;;;;;-142.75;100.00;77808.66;5045580;28;20048;-66
2023/06/04 04:04:38;;;;;;;2.22;0.90;;;;;;;-142.75;100.00;77806.69;5045034;28;20401;-66
2023/06/04 04:07:03;;;;;;;2.92;1.30;;;;;;;-142.75;100.00;77814.56;5045305;28;20723;-66
2023/06/04 04:09:28;;;;;;;3.63;1.30;;;;;;;-142.75;100.00;77810.63;5044953;28;20025;-66
2023/06/04 04:11:54;;;;;;;3.22;1.10;;;;;;;-142.75;100.00;77798.81;5060083;28;20025;-64
2023/06/04 04:14:19;;;;;;;3.47;1.30;;;;;;;-142.75;100.00;77798.81;5045162;28;20028;-63
2023/06/04 04:16:44;;;;;;;3.40;1.40;;;;;;;-142.75;100.00;77794.88;5045856;28;20111;-66
2023/06/04 04:19:11;;;;;;;3.00;1.23;;;;;;;-142.75;100.00;77804.72;5045111;28;20024;-64
2023/06/04 04:21:37;;;;;;;3.45;1.17;;;;;;;-142.75;100.00;77790.94;5044810;28;20097;-64
2023/06/04 04:24:03;;;;;;;4.40;1.70;;;;;;;-142.75;100.00;77775.19;5044916;28;20021;-62
2023/06/04 04:26:29;;;;;;;7.07;1.60;;;;;;;-142.75;100.00;77775.19;5025392;28;20445;-65
2023/06/04 04:28:57;;;;;;;3.28;1.58;;;;;;;-142.75;100.00;77763.38;5024967;28;20033;-65
2023/06/04 04:31:27;;;;;;;2.95;1.30;;;;;;;-142.75;100.00;77751.56;5023987;28;20030;-66
2023/06/04 04:33:54;;;;;;;1.67;1.08;;;;;;;-142.75;100.00;77749.59;5024800;28;20025;-66
2023/06/04 04:36:20;;;;;;;4.72;1.33;;;;;;;-142.75;100.00;77735.81;5024304;28;20053;-65
2023/06/04 04:38:45;;;;;;;3.45;1.38;;;;;;;-142.75;100.00;77727.94;5025284;28;20059;-67
2023/06/04 04:41:11;;;;;;;3.22;1.20;;;;;;;-142.75;100.00;77716.09;5028153;28;20048;-67
2023/06/04 04:43:39;;;;;;;4.57;1.40;;;;;;;-142.75;100.00;77710.19;5028688;28;20036;-65
2023/06/04 04:46:07;;;;;;;4.57;1.40;;;;;;;-142.75;100.00;77688.53;5029306;28;20048;-65
2023/06/04 04:48:32;;;;;;;4.68;1.50;;;;;;;-142.75;100.00;77672.78;5028360;28;20078;-63
2023/06/04 04:50:58;;;;;;;3.80;1.10;;;;;;;-142.75;100.00;77672.78;5028568;28;20087;-65
2023/06/04 04:53:23;;;;;;;5.55;1.45;;;;;;;-142.75;100.00;77682.63;5028445;28;20507;-66
2023/06/04 04:55:48;;;;;;;3.10;1.10;;;;;;;-142.75;100.00;77664.91;5043590;28;20029;-63
2023/06/04 04:58:14;;;;;;;2.90;1.40;;;;;;;-142.75;100.00;77649.16;5028600;28;20100;-65
2023/06/04 05:00:40;;;;;;;4.32;1.55;;;;;;;-142.75;100.00;77649.16;5028249;28;20551;-65
2023/06/04 05:03:05;;;;;;;2.83;1.35;;;;;;;-142.75;100.00;77629.47;5028243;28;20025;-66
2023/06/04 05:05:32;;;;;;;2.85;1.48;;;;;;;-142.75;100.00;77617.66;5028175;28;20044;-66
2023/06/04 05:07:57;;;;;;;4.07;1.13;;;;;;;-142.75;100.00;77609.78;5028099;28;21580;-65
2023/06/04 05:10:23;;;;;;;3.80;1.20;;;;;;;-142.75;100.00;77621.59;5027913;28;20033;-65
2023/06/04 05:12:59;;;;;;;2.47;1.40;;;;;;;-142.75;100.00;77605.84;5028405;28;20028;-66
2023/06/04 05:15:26;;;;;;;;;;;;;;;-142.75;100.00;77594.03;5028997;28;20383;-63
2023/06/04 05:17:52;;;;;;;;;;;;;;;-142.75;100.00;77607.81;5028500;28;20372;-66
2023/06/04 05:20:18;;;;;;;6.50;1.50;;;;;;;-142.75;100.00;77609.78;5028095;28;19978;-65
2023/06/04 05:22:45;;;;;;;4.18;1.60;;;;;;;-142.75;100.00;77580.25;5028053;28;20083;-66
2023/06/04 05:25:11;;;;;;;4.32;1.50;;;;;;;-142.75;100.00;77562.53;5028112;28;20218;-67
2023/06/04 05:27:37;;;;;;;2.97;1.10;;;;;;;-142.75;100.00;77578.28;5027756;28;20033;-65
2023/06/04 05:30:03;;;;;;;4.32;1.40;;;;;;;-142.75;100.00;77566.47;5027703;28;20029;-65
2023/06/04 05:32:30;;;;;;;2.78;1.40;;;;;;;-142.75;100.00;77542.84;5027527;28;20112;-66
2023/06/04 05:34:57;;;;;;;4.22;1.58;;;;;;;-142.75;100.00;77534.97;5027948;28;20401;-65
2023/06/04 05:37:29;;;;;;;4.65;1.33;;;;;;;-142.75;100.00;77507.41;5027468;28;20041;-66
2023/06/04 05:39:57;;;;;;;4.68;1.58;;;;;;;-142.75;100.00;77503.47;5027706;28;20433;-66
2023/06/04 05:42:23;;;;;;;3.47;1.75;;;;;;;-142.75;100.00;77509.38;5027548;28;20036;-66
2023/06/04 05:44:48;;;;;;;3.05;1.20;;;;;;;-142.75;100.00;77505.44;5027525;28;20059;-65
2023/06/04 05:47:16;;;;;;;3.55;1.40;;;;;;;-142.75;100.00;77477.88;5043342;28;20108;-66
2023/06/04 05:49:42;;;;;;;2.38;1.27;;;;;;;-142.75;100.00;77471.97;5027327;28;20040;-65
2023/06/04 05:52:07;;;;;;;4.95;1.20;;;;;;;-142.75;100.00;77468.03;5027316;28;20030;-64
2023/06/04 05:54:36;;;;;;;2.83;1.30;;;;;;;-142.75;100.00;77438.47;5027225;28;20025;-66
2023/06/04 05:57:02;;;;;;;6.57;1.38;;;;;;;-142.75;100.00;77424.69;5027331;28;20083;-65
2023/06/04 05:59:27;;;;;;;3.55;1.52;;;;;;;-142.75;100.00;77422.72;5042440;28;20017;-65
2023/06/04 06:01:53;;;;;;;2.80;1.20;;;;;;;-142.75;100.00;77420.75;5027077;28;20421;-65
2023/06/04 06:04:18;;;;;;;2.88;1.20;;;;;;;-142.75;100.00;77401.06;5027172;28;20029;-66
2023/06/04 06:06:43;;;;;;;3.47;1.38;;;;;;;-142.75;100.00;77401.06;5027460;28;20029;-66
2023/06/04 06:09:10;;;;;;;2.42;0.82;;;;;;;-142.75;100.00;77381.38;5026309;28;20032;-65
2023/06/04 06:11:36;;;;;;;2.88;1.30;;;;;;;-142.75;100.00;77369.56;5028098;28;20029;-67
2023/06/04 06:14:01;;;;;;;3.72;1.13;;;;;;;-142.75;100.00;77361.69;5046062;28;20701;-65
2023/06/04 06:16:26;;;;;;;4.55;1.10;;;;;;;-142.75;100.00;77340.03;5046282;28;20067;-65
2023/06/04 06:18:52;;;;;;;2.53;1.20;;;;;;;-142.75;100.00;77312.47;5046243;28;20055;-66
2023/06/04 06:21:18;;;;;;;5.13;1.77;;;;;;;-142.75;100.00;77304.59;5045907;28;20370;-66
2023/06/04 06:23:43;;;;;;;3.28;1.17;;;;;;;-142.75;100.00;77288.84;5045906;28;20037;-66
2023/06/04 06:26:08;;;;;;;2.95;1.10;;;;;;;-142.75;100.00;77275.06;5044261;28;20517;-66
2023/06/04 06:28:35;;;;;;;3.00;1.20;;;;;;;-142.75;100.00;77273.09;5045601;28;20726;-66
2023/06/04 06:31:01;;;;;;;2.65;1.23;;;;;;;-142.75;100.00;77255.38;5028190;28;20556;-64
2023/06/04 06:33:26;;;;;;;4.88;1.02;;;;;;;-142.75;100.00;77245.53;5045702;28;20032;-65
2023/06/04 06:35:52;;;;;;;7.25;1.88;;;;;;;-142.75;100.00;77235.69;5033668;28;20083;-66
2023/06/04 06:38:17;;;;;;;2.42;1.20;;;;;;;-142.75;100.00;77233.72;5026548;28;20027;-65
2023/06/04 06:40:43;;;;;;;6.55;1.27;;;;;;;-142.75;100.00;77219.94;5025777;28;20095;-67
2023/06/04 06:43:09;;;;;;;3.53;1.25;;;;;;;-142.75;100.00;77206.16;5025582;28;20646;-66
2023/06/04 06:45:35;;;;;;;3.20;1.30;;;;;;;-142.75;100.00;77202.22;5025323;28;20108;-65
2023/06/04 06:48:00;;;;;;;5.95;1.63;;;;;;;-142.75;100.00;77184.50;5025393;28;20116;-65
2023/06/04 06:50:25;;;;;;;5.22;1.25;;;;;;;-142.75;100.00;77172.69;5025572;28;20037;-66
2023/06/04 06:52:51;;;;;;;4.90;1.20;;;;;;;-142.75;100.00;77162.84;5025032;28;20056;-65
2023/06/04 06:55:16;;;;;;;3.33;1.58;;;;;;;-142.75;100.00;77153.00;5024962;28;20037;-66
2023/06/04 06:57:41;;;;;;;3.10;1.00;;;;;;;-142.75;100.00;77139.22;5025127;28;20032;-66
2023/06/04 07:00:08;;;;;;;3.67;1.10;;;;;;;-142.75;100.00;77121.50;5024921;28;20025;-64
2023/06/04 07:02:33;;;;;;;2.72;1.02;;;;;;;-142.75;100.00;77121.50;5025237;28;20021;-65
2023/06/04 07:04:59;;;;;;;3.75;1.30;;;;;;;-142.75;100.00;77105.75;5025541;28;20091;-67
2023/06/04 07:07:24;;;;;;;4.93;1.58;;;;;;;-142.75;99.15;77105.75;5025798;28;20060;-66
2023/06/04 07:09:50;;;;;;;4.13;1.42;;;;;;;-142.75;100.00;77101.81;5025172;28;20029;-64
2023/06/04 07:12:15;;;;;;;4.93;1.23;;;;;;;-142.75;100.00;77093.94;5040502;28;20577;-65
2023/06/04 07:14:40;;;;;;;4.32;1.30;;;;;;;-142.75;97.96;77080.16;5025439;28;20027;-65
2023/06/04 07:17:06;;;;;;;3.13;1.00;;;;;;;-142.75;99.59;77072.28;5025530;28;20815;-65
2023/06/04 07:19:31;;;;;;;6.07;1.15;;;;;;;-142.75;97.88;77046.69;5024145;28;20666;-65
2023/06/04 07:21:56;;;;;;;3.03;0.85;;;;;;;-142.75;97.58;77042.75;5024195;28;20137;-66
2023/06/04 07:24:22;;;;;;;4.32;1.00;;;;;;;-142.75;100.00;77028.97;5039625;28;20021;-66
2023/06/04 07:26:48;;;;;;;5.35;1.50;;;;;;;-142.75;98.67;77001.41;5025071;28;20405;-65
2023/06/04 07:29:13;;;;;;;4.55;1.13;;;;;;;-142.75;97.53;76975.81;5024876;28;20048;-66
2023/06/04 07:31:39;;;;;;;4.38;1.33;;;;;;;-142.75;97.20;76962.03;5024804;28;20029;-66
2023/06/04 07:34:04;;;;;;;3.53;1.30;;;;;;;-142.75;94.31;76940.38;5025180;28;20028;-65
2023/06/04 07:36:30;;;;;;;4.32;1.00;;;;;;;-142.75;93.31;76952.19;5024852;28;20056;-65
2023/06/04 07:38:56;;;;;;;6.05;0.95;;;;;;;-142.75;91.68;76916.75;5024371;28;20029;-66
2023/06/04 07:41:21;;;;;;;6.15;1.33;;;;;;;-142.75;90.38;76897.06;5024744;28;20021;-64
2023/06/04 07:43:47;;;;;;;3.05;1.13;;;;;;;-142.75;86.89;76893.13;5025214;28;20031;-66
2023/06/04 07:46:12;;;;;;;3.08;1.23;;;;;;;-142.75;86.38;76893.13;5024932;28;20402;-64
2023/06/04 07:48:37;;;;;;;6.38;1.20;;;;;;;-142.75;83.28;76885.25;5024933;28;20049;-65
2023/06/04 07:51:04;;;;;;;5.25;1.25;;;;;;;-142.75;88.37;76877.38;5024000;28;20100;-65
2023/06/04 07:53:30;;;;;;;1.95;0.68;;;;;;;-142.75;85.53;76875.41;5024616;28;20034;-65
2023/06/04 07:55:56;;;;;;;1.95;0.85;;;;;;;-142.75;83.61;76865.56;5023438;28;20031;-66
2023/06/04 07:58:22;;;;;;;2.78;0.95;;;;;;;-142.75;81.43;76871.47;5032718;28;20090;-65
2023/06/04 08:00:48;;;;;;;4.03;1.00;;;;;;;-142.75;81.68;76861.63;5044571;28;20033;-65
2023/06/04 08:03:15;;;;;;;3.25;0.63;;;;;;;-142.75;79.91;76832.09;5044700;28;20036;-65
2023/06/04 08:05:40;;;;;;;1.90;0.90;;;;;;;-142.75;82.77;76839.97;5044609;28;20045;-66
2023/06/04 08:08:06;;;;;;;5.82;1.02;;;;;;;-142.75;81.37;76820.28;5045015;28;20057;-66
2023/06/04 08:10:31;;;;;;;3.92;1.20;;;;;;;-142.75;79.08;76822.25;5044154;28;20025;-66
2023/06/04 08:12:56;;;;;;;1.40;0.73;;;;;;;-142.75;76.79;76853.75;5044808;28;20628;-66
2023/06/04 08:15:22;;;;;;;1.67;0.88;;;;;;;-142.75;80.65;76794.69;5047254;28;20032;-65
2023/06/04 08:17:47;;;;;;;3.70;0.85;;;;;;;-142.75;79.29;76786.84;5048606;28;20078;-65
2023/06/04 08:20:13;;;;;;;4.20;1.17;;;;;;;-142.75;75.82;76769.13;5032923;28;20470;-67
2023/06/04 08:22:38;;;;;;;2.15;0.80;;;;;;;-142.75;79.20;76741.56;5028698;28;20029;-68
2023/06/04 08:25:04;;;;;;;2.55;1.13;;;;;;;-142.75;78.42;76715.97;5027807;28;20048;-68
2023/06/04 08:27:30;;;;;;;3.00;0.90;;;;;;;-142.75;77.43;76698.25;5027551;28;20086;-66
2023/06/04 08:29:57;;;;;;;3.33;0.82;;;;;;;-142.75;73.65;76690.38;5026607;28;20049;-65
2023/06/04 08:32:22;;;;;;;2.13;1.10;;;;;;;-142.75;72.96;76668.72;5026148;28;20060;-67
2023/06/04 08:34:48;;;;;;;6.55;1.00;;;;;;;-142.75;74.05;76668.72;5027507;28;20021;-67
2023/06/04 08:37:13;;;;;;;1.70;0.85;;;;;;;-142.75;72.70;76672.66;5027879;28;20025;-67
2023/06/04 08:39:38;;;;;;;1.52;0.77;;;;;;;-142.75;75.91;76645.09;5028057;28;20080;-67
2023/06/04 08:42:09;;;;;;;2.22;0.75;;;;;;;-142.75;77.89;76649.03;5027118;28;20147;-67
2023/06/04 08:44:35;;;;;;;1.90;0.85;;;;;;;-142.75;76.08;76629.34;5027280;28;20037;-67
2023/06/04 08:47:05;;;;;;;7.22;1.05;;;;;;;-142.75;73.63;76586.03;5027720;28;20032;-69
2023/06/04 08:49:40;;;;;;;2.15;0.80;;;;;;;-142.75;76.32;76582.09;5027806;28;20021;-67
2023/06/04 08:52:06;;;;;;;3.53;0.77;;;;;;;-142.75;77.16;76546.66;5042872;28;20063;-67
2023/06/04 08:54:32;;;;;;;2.08;1.00;;;;;;;-142.75;74.24;76578.16;5042532;28;20052;-67
2023/06/04 08:57:00;;;;;;;2.72;1.13;;;;;;;-142.75;71.53;76582.09;5026781;28;20410;-66
2023/06/04 08:59:27;;;;;;;3.38;0.85;;;;;;;-142.75;75.05;76538.78;5027674;28;20282;-66
2023/06/04 09:01:57;;;;;;;4.13;0.80;;;;;;;-142.75;70.63;76576.19;5027495;28;20029;-66
2023/06/04 09:04:24;;;;;;;2.10;0.93;;;;;;;-142.75;71.15;76576.19;5027304;28;20129;-67
2023/06/04 09:06:52;;;;;;;4.70;1.15;;;;;;;-142.75;69.29;76601.78;5028745;28;20525;-68
2023/06/04 09:09:19;;;;;;;2.38;1.10;;;;;;;-142.75;70.49;76558.47;5028986;28;20532;-68
2023/06/04 09:11:57;;;;;;;1.52;0.60;;;;;;;-142.75;70.65;76550.59;5028740;28;20037;-67
2023/06/04 09:14:22;;;;;;;2.03;0.80;;;;;;;-142.75;71.62;76521.09;5037943;28;20044;-68
2023/06/04 09:16:50;;;;;;;3.15;0.70;;;;;;;-142.75;73.34;76503.38;5048456;28;20482;-68
2023/06/04 09:19:17;;;;;;;6.38;1.20;;;;;;;-142.75;74.37;76497.47;5048624;28;20033;-66
2023/06/04 09:21:56;;;;;;;6.57;0.80;;;;;;;-142.75;75.33;76475.81;5030449;28;20025;-67
2023/06/04 09:24:38;;;;;;;8.90;1.00;;;;;;;-142.75;70.33;76483.69;5028355;28;20072;-66
2023/06/04 09:27:10;;;;;;;3.03;1.00;;;;;;;-142.75;70.95;76487.63;5027912;28;20026;-67
2023/06/04 09:29:36;;;;;;;3.40;1.00;;;;;;;-142.75;72.24;76477.78;5027731;28;20064;-67
2023/06/04 09:32:01;;;;;;;2.72;0.98;;;;;;;-142.75;74.80;76438.41;5027770;28;20029;-67
2023/06/04 09:34:28;;;;;;;4.82;1.27;;;;;;;-142.75;76.66;76442.34;5027894;28;20072;-66
2023/06/04 09:36:54;;;;;;;3.45;0.90;;;;;;;-142.75;75.79;76408.88;5040507;28;20486;-68
2023/06/04 09:39:19;;;;;;;3.50;1.08;;;;;;;-142.75;75.72;76402.97;5048268;28;20033;-68
2023/06/04 09:41:44;;;;;;;7.50;1.50;;;;;;;-142.75;76.18;76408.88;5047822;28;20053;-67
2023/06/04 09:44:11;;;;;;;2.60;0.95;;;;;;;-142.75;76.86;76373.44;5047900;28;20033;-67
2023/06/04 09:46:37;;;;;;;3.67;0.98;;;;;;;-142.75;75.49;76363.59;5047951;28;20021;-67
2023/06/04 09:49:04;;;;;;;2.42;0.90;;;;;;;-142.75;75.44;76351.81;5047992;28;20032;-67
2023/06/04 09:51:30;;;;;;;6.82;1.35;;;;;;;-142.75;72.48;76351.81;5047660;28;20090;-67
2023/06/04 09:53:57;;;;;;;2.55;1.10;;;;;;;-142.75;70.62;76355.72;5029467;28;20057;-67
2023/06/04 09:56:23;;;;;;;2.95;1.15;;;;;;;-142.75;67.53;76355.72;5027976;28;20063;-67
2023/06/04 09:58:49;;;;;;;3.47;1.10;;;;;;;-142.75;67.91;76369.50;5028136;28;20554;-66
2023/06/04 10:01:15;;;;;;;3.35;1.42;;;;;;;-142.75;72.68;76353.78;5027611;28;20021;-67
2023/06/04 10:03:45;;;;;;;4.38;1.02;;;;;;;-142.75;68.16;76371.47;5027538;28;20098;-66
2023/06/04 10:06:14;;;;;;;3.45;1.30;;;;;;;-142.75;70.71;76367.53;5027680;28;20035;-66
2023/06/04 10:08:42;;;;;;;6.72;1.30;;;;;;;-142.75;71.76;76345.91;5027690;28;20036;-66
2023/06/04 10:11:11;;;;;;;2.50;0.93;;;;;;;-142.75;71.44;76373.44;5027477;28;20026;-66
2023/06/04 10:13:52;;;;;;;2.92;1.05;;;;;;;-142.75;71.69;76351.81;5027297;28;20037;-66
2023/06/04 10:16:20;;;;;;;2.75;0.60;;;;;;;-142.75;70.33;76328.19;5027676;28;20045;-66
2023/06/04 10:18:45;;;;;;;2.55;0.93;;;;;;;-142.75;73.66;76294.72;5027604;28;20029;-67
2023/06/04 10:21:13;;;;;;;3.78;1.17;;;;;;;-142.75;72.90;76253.38;5027323;28;20021;-66
2023/06/04 10:23:40;;;;;;;2.03;0.85;;;;;;;-142.75;70.35;76290.78;5027425;28;20025;-67
2023/06/04 10:26:06;;;;;;;3.72;0.98;;;;;;;-142.75;71.89;76261.25;5027363;28;20060;-67
2023/06/04 10:28:33;;;;;;;4.28;1.27;;;;;;;-142.75;67.46;76265.19;5025060;28;20057;-67
2023/06/04 10:30:58;;;;;;;5.63;0.90;;;;;;;-142.75;68.98;76243.53;5027073;28;20456;-67
2023/06/04 10:33:24;;;;;;;3.50;1.30;;;;;;;-142.75;67.83;76247.47;5027264;28;20100;-68
2023/06/04 10:35:54;;;;;;;4.05;1.10;;;;;;;-142.75;64.49;76282.91;5027500;28;20176;-67
2023/06/04 10:38:21;;;;;;;6.55;1.30;;;;;;;-142.75;62.32;76290.78;5026917;28;20372;-66
2023/06/04 10:40:47;;;;;;;4.43;0.90;;;;;;;-142.75;66.54;76275.03;5027413;28;20024;-67
2023/06/04 10:43:15;;;;;;;2.00;0.60;;;;;;;-142.75;71.04;76231.72;5027351;28;20029;-67
2023/06/04 10:45:41;;;;;;;3.58;0.82;;;;;;;-142.75;65.80;76286.84;5027024;28;20029;-67
2023/06/04 10:48:09;;;;;;;4.13;1.10;;;;;;;-142.75;68.74;76251.41;5027309;28;20769;-67
2023/06/04 10:50:47;;;;;;;5.00;1.20;;;;;;;-142.75;69.90;76217.94;5026299;28;20116;-67
2023/06/04 10:53:12;;;;;;;3.17;1.00;;;;;;;-142.75;71.79;76208.09;5027892;28;20029;-67
2023/06/04 10:55:45;;;;;;;2.55;0.70;;;;;;;-142.75;65.09;76233.69;5026146;28;20028;-67
2023/06/04 10:58:11;;;;;;;4.35;1.10;;;;;;;-142.75;63.85;76239.59;5026190;28;20105;-67
2023/06/04 11:00:45;;;;;;;4.55;1.02;;;;;;;-142.75;61.34;76253.38;5025878;28;20156;-66
2023/06/04 11:03:11;;;;;;;3.03;1.10;;;;;;;-142.75;63.58;76231.72;5026436;28;20033;-66
2023/06/04 11:05:47;;;;;;;2.80;1.00;;;;;;;-142.75;68.90;76223.84;5025754;28;20048;-67
2023/06/04 11:08:14;;;;;;;1.75;0.80;;;;;;;-142.75;70.20;76200.25;5026141;28;20057;-66
2023/06/04 11:10:42;;;;;;;2.30;1.27;;;;;;;-142.75;66.33;76182.53;5025769;28;20026;-66